Time;durP1;ratioP1;P1;durP2;ratioP2;P2;SDS_P1;SDS_P2;PMS_P1;PMS_P2;Temp;Humidity;BMP_temperature;BMP_pressure;BME280_temperature;BME280_humidity;BME280_pressure;Samples;Min_cycle;Max_cycle;Signal;HPM_P1;HPM_P2
2024/04/10 00:00:56;;;;;;;3.30;0.80;;;6.70;99.90;;;;;;5505913;25;20013;-87
2024/04/10 00:03:22;;;;;;;3.20;0.90;;;6.70;99.90;;;;;;5503413;26;20842;-86
2024/04/10 00:06:00;;;;;;;1.33;0.80;;;6.70;99.90;;;;;;5503285;26;20018;-86
2024/04/10 00:08:26;;;;;;;1.60;0.73;;;6.70;99.90;;;;;;5504496;25;19998;-86
2024/04/10 00:10:52;;;;;;;1.17;0.90;;;6.60;99.90;;;;;;5502517;26;20353;-87
2024/04/10 00:13:17;;;;;;;3.00;1.10;;;6.70;99.90;;;;;;5504755;26;20001;-86
2024/04/10 00:15:43;;;;;;;1.30;0.80;;;6.60;99.90;;;;;;5503566;25;20006;-86
2024/04/10 00:18:09;;;;;;;2.00;0.97;;;6.60;99.90;;;;;;5500355;26;20038;-86
2024/04/10 00:20:35;;;;;;;1.77;0.80;;;6.60;99.90;;;;;;5500912;26;20009;-86
2024/04/10 00:23:05;;;;;;;3.87;0.90;;;6.60;99.90;;;;;;5501990;25;20013;-86
2024/04/10 00:25:31;;;;;;;0.87;0.70;;;6.60;99.90;;;;;;5500562;25;20030;-86
2024/04/10 00:28:00;;;;;;;2.33;0.90;;;6.60;99.90;;;;;;5504334;26;20009;-86
2024/04/10 00:30:26;;;;;;;3.20;1.10;;;6.50;99.90;;;;;;5502707;26;20009;-87
2024/04/10 00:32:52;;;;;;;1.97;1.00;;;6.50;99.90;;;;;;5502700;26;20475;-86
2024/04/10 00:35:17;;;;;;;3.13;1.50;;;6.50;99.90;;;;;;5503597;26;19998;-86
2024/04/10 00:37:43;;;;;;;3.40;1.20;;;6.50;99.90;;;;;;5503588;25;20024;-86
2024/04/10 00:40:12;;;;;;;2.10;1.20;;;6.50;99.90;;;;;;5503510;26;20477;-86
2024/04/10 00:42:37;;;;;;;1.03;0.90;;;6.50;99.90;;;;;;5504323;26;20066;-86
2024/04/10 00:45:03;;;;;;;2.17;1.20;;;6.50;99.90;;;;;;5502429;26;20028;-86
2024/04/10 00:47:29;;;;;;;2.90;1.30;;;6.50;99.90;;;;;;5499790;26;19990;-86
2024/04/10 00:49:57;;;;;;;2.70;1.27;;;6.40;99.90;;;;;;5502206;26;19994;-86
2024/04/10 00:52:23;;;;;;;2.50;1.30;;;6.40;99.90;;;;;;5501865;25;20009;-86
2024/04/10 00:54:49;;;;;;;1.73;1.17;;;6.40;99.90;;;;;;5502905;26;20477;-86
2024/04/10 00:57:14;;;;;;;2.10;1.30;;;6.40;99.90;;;;;;5501783;26;20078;-86
2024/04/10 00:59:40;;;;;;;2.23;1.20;;;6.40;99.90;;;;;;5505199;26;20080;-86
2024/04/10 01:02:07;;;;;;;2.43;1.40;;;6.40;99.90;;;;;;5503853;25;20143;-86
2024/04/10 01:04:33;;;;;;;1.47;1.10;;;6.30;99.90;;;;;;5503484;25;21447;-86
2024/04/10 01:06:59;;;;;;;4.37;1.43;;;6.30;99.90;;;;;;5503675;25;20117;-86
2024/04/10 01:09:24;;;;;;;4.07;1.30;;;6.40;99.90;;;;;;5501393;26;20001;-86
2024/04/10 01:11:50;;;;;;;2.50;1.27;;;6.30;99.90;;;;;;5500731;26;21488;-86
2024/04/10 01:14:16;;;;;;;3.10;1.43;;;6.30;99.90;;;;;;5502195;26;20395;-86
2024/04/10 01:16:41;;;;;;;2.23;1.17;;;6.30;99.90;;;;;;5501635;25;20526;-86
2024/04/10 01:19:08;;;;;;;2.80;1.20;;;6.30;99.90;;;;;;5504040;26;20762;-86
2024/04/10 01:21:34;;;;;;;2.80;1.30;;;6.30;99.90;;;;;;5502619;25;19998;-85
2024/04/10 01:24:00;;;;;;;3.63;1.40;;;6.30;99.90;;;;;;5504274;25;21286;-85
2024/04/10 01:26:25;;;;;;;1.60;1.17;;;6.30;99.90;;;;;;5502636;26;20049;-85
2024/04/10 01:28:51;;;;;;;4.93;1.23;;;6.30;99.90;;;;;;5503471;25;20005;-85
2024/04/10 01:31:17;;;;;;;4.43;1.63;;;6.30;99.90;;;;;;5504291;25;20017;-86
2024/04/10 01:33:42;;;;;;;2.30;1.30;;;6.30;99.90;;;;;;5502493;26;20005;-86
2024/04/10 01:36:08;;;;;;;4.13;1.23;;;6.30;99.90;;;;;;5502049;26;20077;-85
2024/04/10 01:38:33;;;;;;;3.97;1.33;;;6.30;99.90;;;;;;5501290;25;19998;-86
2024/04/10 01:40:59;;;;;;;3.47;1.33;;;6.30;99.90;;;;;;5502185;26;20016;-86
2024/04/10 01:43:25;;;;;;;5.13;1.40;;;6.30;99.90;;;;;;5502891;26;20038;-86
2024/04/10 01:45:51;;;;;;;3.43;1.43;;;6.30;99.90;;;;;;5501661;26;20018;-87
2024/04/10 01:48:17;;;;;;;4.43;1.53;;;6.30;99.90;;;;;;5502594;26;20142;-85
2024/04/10 01:50:42;;;;;;;5.10;1.40;;;6.30;99.90;;;;;;5503338;25;20069;-86
2024/04/10 01:53:08;;;;;;;3.57;1.43;;;6.30;99.90;;;;;;5503603;26;20001;-86
2024/04/10 01:55:34;;;;;;;4.47;1.60;;;6.30;99.90;;;;;;5503925;25;20020;-85
2024/04/10 01:57:59;;;;;;;4.57;1.30;;;6.20;99.90;;;;;;5505379;26;19993;-86
2024/04/10 02:00:25;;;;;;;3.43;1.30;;;6.20;99.90;;;;;;5503393;26;20047;-85
2024/04/10 02:02:51;;;;;;;2.87;1.03;;;6.20;99.90;;;;;;5501183;26;20001;-85
2024/04/10 02:05:16;;;;;;;3.10;1.33;;;6.20;99.90;;;;;;5499201;25;20009;-86
2024/04/10 02:07:42;;;;;;;4.30;1.20;;;6.20;99.90;;;;;;5502272;25;20002;-86
2024/04/10 02:10:08;;;;;;;2.23;1.33;;;6.20;99.90;;;;;;5501675;26;20001;-85
2024/04/10 02:12:33;;;;;;;4.60;1.33;;;6.20;99.90;;;;;;5500546;26;20011;-85
2024/04/10 02:14:59;;;;;;;4.03;1.17;;;6.20;99.90;;;;;;5502285;26;20018;-86
2024/04/10 02:17:25;;;;;;;2.53;1.37;;;6.20;99.90;;;;;;5501702;25;19998;-86
2024/04/10 02:19:51;;;;;;;3.60;1.30;;;6.20;99.90;;;;;;5502226;26;20009;-85
2024/04/10 02:22:17;;;;;;;3.67;1.53;;;6.20;99.90;;;;;;5504292;25;20657;-86
2024/04/10 02:24:44;;;;;;;3.57;1.30;;;6.20;99.90;;;;;;5502053;25;19998;-86
2024/04/10 02:27:09;;;;;;;3.07;1.20;;;6.20;99.90;;;;;;5503172;26;20005;-86
2024/04/10 02:29:35;;;;;;;3.93;1.17;;;6.20;99.90;;;;;;5502312;25;20005;-86
2024/04/10 02:32:01;;;;;;;3.37;1.33;;;6.20;99.90;;;;;;5503593;25;20450;-87
2024/04/10 02:34:27;;;;;;;3.03;1.10;;;6.20;99.90;;;;;;5503270;25;20009;-86
2024/04/10 02:36:53;;;;;;;3.37;1.57;;;6.10;99.90;;;;;;5502442;26;20020;-86
2024/04/10 02:39:21;;;;;;;3.90;1.30;;;6.10;99.90;;;;;;5500262;26;20978;-86
2024/04/10 02:41:49;;;;;;;4.63;1.10;;;6.10;99.90;;;;;;5504218;26;20017;-86
2024/04/10 02:44:14;;;;;;;3.70;1.20;;;6.10;99.90;;;;;;5502822;25;20015;-87
2024/04/10 02:46:40;;;;;;;1.93;1.03;;;6.10;99.90;;;;;;5502817;25;20005;-86
2024/04/10 02:49:05;;;;;;;3.43;1.23;;;6.10;99.90;;;;;;5501504;25;20004;-86
2024/04/10 02:51:31;;;;;;;4.23;1.20;;;6.20;99.90;;;;;;5501226;26;20054;-86
2024/04/10 02:53:56;;;;;;;4.27;1.03;;;6.10;99.90;;;;;;5500655;26;20009;-86
2024/04/10 02:56:22;;;;;;;7.53;1.57;;;6.10;99.90;;;;;;5501210;26;20010;-87
2024/04/10 02:58:48;;;;;;;5.73;1.10;;;6.10;99.90;;;;;;5500955;25;20005;-87
2024/04/10 03:01:14;;;;;;;2.67;1.20;;;6.10;99.90;;;;;;5501750;26;20486;-87
2024/04/10 03:03:40;;;;;;;2.93;1.10;;;6.10;99.90;;;;;;5503614;25;20058;-87
2024/04/10 03:06:07;;;;;;;2.17;1.30;;;6.10;99.90;;;;;;5500208;26;20013;-86
2024/04/10 03:08:34;;;;;;;2.60;1.00;;;6.10;99.90;;;;;;5501346;25;21420;-87
2024/04/10 03:11:00;;;;;;;4.10;1.63;;;6.00;99.90;;;;;;5501985;26;19998;-88
2024/04/10 03:13:26;;;;;;;5.27;1.17;;;6.10;99.90;;;;;;5501311;26;20001;-87
2024/04/10 03:15:52;;;;;;;3.57;0.93;;;6.10;99.90;;;;;;5501203;25;20001;-86
2024/04/10 03:18:18;;;;;;;3.40;1.00;;;6.10;99.90;;;;;;5504260;26;20017;-87
2024/04/10 03:20:44;;;;;;;4.23;1.23;;;6.10;99.90;;;;;;5506156;26;20005;-86
2024/04/10 03:23:09;;;;;;;5.57;1.20;;;6.10;99.90;;;;;;5506613;25;20040;-87
2024/04/10 03:25:35;;;;;;;2.63;0.90;;;6.00;99.90;;;;;;5502783;26;20447;-87
2024/04/10 03:28:01;;;;;;;3.63;1.33;;;6.00;99.90;;;;;;5504026;25;20017;-87
2024/04/10 03:30:27;;;;;;;3.33;1.10;;;6.00;99.90;;;;;;5503941;25;20050;-87
2024/04/10 03:32:53;;;;;;;2.17;1.00;;;6.00;99.90;;;;;;5504643;26;20097;-87
2024/04/10 03:35:19;;;;;;;3.77;1.23;;;6.00;99.90;;;;;;5503979;26;20001;-87
2024/04/10 03:37:45;;;;;;;4.03;1.90;;;6.00;99.90;;;;;;5505385;25;20006;-87
2024/04/10 03:40:11;;;;;;;3.93;1.30;;;6.00;99.90;;;;;;5504588;25;20487;-87
2024/04/10 03:42:38;;;;;;;6.10;1.60;;;6.00;99.90;;;;;;5501041;26;20074;-87
2024/04/10 03:45:04;;;;;;;5.30;1.17;;;6.00;99.90;;;;;;5502781;25;20016;-87
2024/04/10 03:47:30;;;;;;;4.13;1.07;;;6.00;99.90;;;;;;5504731;26;19998;-87
2024/04/10 03:49:56;;;;;;;6.90;1.20;;;6.00;99.90;;;;;;5503183;26;20355;-87
2024/04/10 03:52:22;;;;;;;2.43;1.10;;;6.00;99.90;;;;;;5504355;26;20054;-87
2024/04/10 03:54:47;;;;;;;3.57;1.17;;;6.00;99.90;;;;;;5504497;26;20013;-87
2024/04/10 03:57:13;;;;;;;5.73;1.33;;;6.10;99.90;;;;;;5501487;26;20084;-88
2024/04/10 03:59:38;;;;;;;1.53;1.03;;;6.10;99.90;;;;;;5504350;25;20005;-87
2024/04/10 04:02:04;;;;;;;3.97;1.40;;;6.10;99.90;;;;;;5501594;25;20001;-87
2024/04/10 04:04:29;;;;;;;5.57;1.10;;;6.10;99.90;;;;;;5500781;25;20013;-87
2024/04/10 04:06:55;;;;;;;3.97;1.10;;;6.10;99.90;;;;;;5499697;25;19994;-87
2024/04/10 04:09:21;;;;;;;1.57;0.80;;;6.10;99.90;;;;;;5495222;26;20016;-87
2024/04/10 04:11:47;;;;;;;3.13;1.17;;;6.20;99.90;;;;;;5502281;26;20009;-87
2024/04/10 04:14:12;;;;;;;3.17;1.17;;;6.10;99.90;;;;;;5500496;26;20048;-86
2024/04/10 04:16:39;;;;;;;3.50;1.10;;;6.20;99.90;;;;;;5499031;26;20463;-87
2024/04/10 04:19:05;;;;;;;2.20;1.20;;;6.20;99.90;;;;;;5495782;25;20005;-87
2024/04/10 04:21:31;;;;;;;2.53;1.33;;;6.20;99.90;;;;;;5493185;26;20001;-86
2024/04/10 04:24:01;;;;;;;4.17;1.60;;;6.20;99.90;;;;;;5500276;26;20006;-87
2024/04/10 04:26:26;;;;;;;4.60;1.40;;;6.20;99.90;;;;;;5498700;26;20035;-87
2024/04/10 04:28:53;;;;;;;3.27;1.90;;;6.20;99.90;;;;;;5496395;25;20009;-87
2024/04/10 04:31:19;;;;;;;3.93;1.87;;;6.20;99.90;;;;;;5497876;25;20086;-87
2024/04/10 04:33:45;;;;;;;7.20;3.17;;;6.20;99.90;;;;;;5498296;26;20009;-86
2024/04/10 04:36:10;;;;;;;4.43;2.80;;;6.20;99.90;;;;;;5496827;25;19998;-87
2024/04/10 04:38:36;;;;;;;3.43;1.57;;;6.20;99.90;;;;;;5497835;26;20012;-87
2024/04/10 04:41:03;;;;;;;4.33;1.53;;;6.20;99.90;;;;;;5498743;26;20033;-87
2024/04/10 04:43:29;;;;;;;4.00;1.23;;;6.20;99.90;;;;;;5495067;25;20017;-87
2024/04/10 04:45:54;;;;;;;4.20;1.30;;;6.20;99.90;;;;;;5495620;25;20656;-87
2024/04/10 04:48:20;;;;;;;3.07;1.30;;;6.20;99.90;;;;;;5498083;25;20097;-86
2024/04/10 04:50:48;;;;;;;3.20;1.40;;;6.20;99.90;;;;;;5495422;26;20074;-87
2024/04/10 04:53:15;;;;;;;3.53;1.43;;;6.20;99.90;;;;;;5488504;26;21674;-87
2024/04/10 04:55:42;;;;;;;4.33;1.70;;;6.20;99.90;;;;;;5492108;25;19989;-87
2024/04/10 04:58:08;;;;;;;5.63;1.77;;;6.20;99.90;;;;;;5494289;25;20006;-87
2024/04/10 05:00:34;;;;;;;4.73;1.50;;;6.20;99.90;;;;;;5495970;26;20034;-88
2024/04/10 05:03:00;;;;;;;2.57;1.40;;;6.10;99.90;;;;;;5496482;25;20017;-88
2024/04/10 05:05:26;;;;;;;1.97;1.30;;;6.20;99.90;;;;;;5493958;26;20024;-73
2024/04/10 05:07:52;;;;;;;3.00;1.30;;;6.20;99.90;;;;;;5489982;26;20006;-88
2024/04/10 05:10:18;;;;;;;2.37;0.90;;;6.20;99.90;;;;;;5488587;26;20492;-88
2024/04/10 05:12:44;;;;;;;2.83;0.90;;;6.20;99.90;;;;;;5490309;26;19994;-89
2024/04/10 05:15:14;;;;;;;3.37;1.20;;;6.20;99.90;;;;;;5489047;26;21827;-88
2024/04/10 05:17:48;;;;;;;2.03;1.13;;;6.10;99.90;;;;;;5490417;26;20001;-88
2024/04/10 05:20:14;;;;;;;2.88;1.25;;;6.10;99.90;;;;;;5491227;26;20013;-89
2024/04/10 05:22:40;;;;;;;6.20;1.30;;;6.10;99.90;;;;;;5492142;26;20033;-89
2024/04/10 05:25:06;;;;;;;3.40;1.07;;;6.10;99.90;;;;;;5490915;25;20109;-89
2024/04/10 05:27:32;;;;;;;4.63;1.30;;;6.10;99.90;;;;;;5486545;26;20002;-89
2024/04/10 05:30:06;;;;;;;3.57;1.37;;;6.20;99.90;;;;;;5488416;26;20005;-89
2024/04/10 05:32:38;;;;;;;3.70;1.20;;;6.20;99.90;;;;;;5488886;26;19990;-88
2024/04/10 05:35:09;;;;;;;2.47;1.23;;;6.20;99.90;;;;;;5486836;26;20041;-89
2024/04/10 05:37:35;;;;;;;6.57;1.17;;;6.20;99.90;;;;;;5487391;26;20058;-90
2024/04/10 05:40:05;;;;;;;2.43;1.40;;;6.30;99.90;;;;;;5488520;25;20002;-88
2024/04/10 05:42:35;;;;;;;2.77;1.40;;;6.30;99.90;;;;;;5487251;25;20015;-88
2024/04/10 05:45:01;;;;;;;1.70;1.00;;;6.30;99.90;;;;;;5488678;25;20445;-89
2024/04/10 05:47:26;;;;;;;3.50;1.20;;;6.30;99.90;;;;;;5489399;26;20016;-91
2024/04/10 05:49:53;;;;;;;2.93;1.30;;;6.30;99.90;;;;;;5841246;21;20010;-87
2024/04/10 05:52:18;;;;;;;7.40;1.63;;;6.30;99.90;;;;;;5321132;26;20760;-87
2024/04/10 05:54:48;;;;;;;8.37;1.63;;;6.40;99.90;;;;;;5321156;26;20007;-87
2024/04/10 05:57:14;;;;;;;4.43;1.40;;;6.40;99.90;;;;;;5322527;26;20772;-87
2024/04/10 05:59:39;;;;;;;3.50;1.57;;;6.40;99.90;;;;;;5323794;26;20096;-86
2024/04/10 06:02:05;;;;;;;4.83;1.47;;;6.50;99.90;;;;;;5322800;26;20008;-86
2024/04/10 06:04:30;;;;;;;4.03;1.53;;;6.50;99.90;;;;;;5322477;26;20100;-86
2024/04/10 06:06:56;;;;;;;5.10;1.50;;;6.50;99.90;;;;;;5321716;26;20024;-87
2024/04/10 06:09:21;;;;;;;4.27;1.10;;;6.50;99.90;;;;;;5323505;26;19997;-87
2024/04/10 06:11:47;;;;;;;3.90;1.37;;;6.60;99.90;;;;;;5321636;26;20009;-86
2024/04/10 06:14:12;;;;;;;6.43;1.83;;;6.60;99.90;;;;;;5321186;26;20094;-86
2024/04/10 06:16:38;;;;;;;3.97;1.20;;;6.60;99.90;;;;;;5318451;26;20016;-86
2024/04/10 06:19:03;;;;;;;1.93;1.10;;;6.70;99.90;;;;;;5319642;26;20005;-86
2024/04/10 06:21:29;;;;;;;3.37;1.40;;;6.70;99.90;;;;;;5321849;26;19993;-86
2024/04/10 06:23:54;;;;;;;4.20;1.53;;;6.70;99.90;;;;;;5323768;26;20811;-87
2024/04/10 06:26:20;;;;;;;4.20;1.27;;;6.70;99.90;;;;;;5323217;26;20016;-86
2024/04/10 06:28:45;;;;;;;4.70;1.40;;;6.80;99.90;;;;;;5322520;26;20465;-86
2024/04/10 06:31:12;;;;;;;3.80;1.60;;;6.80;99.90;;;;;;5321604;26;20013;-86
2024/04/10 06:33:38;;;;;;;2.07;1.10;;;6.80;99.90;;;;;;5322589;26;20004;-87
2024/04/10 06:36:04;;;;;;;3.27;1.23;;;6.80;99.90;;;;;;5323366;26;20020;-86
2024/04/10 06:38:33;;;;;;;4.47;1.17;;;6.90;99.90;;;;;;5321796;26;20011;-86
2024/04/10 06:41:01;;;;;;;3.13;1.40;;;6.90;99.90;;;;;;5322345;26;22101;-86
2024/04/10 06:43:27;;;;;;;4.63;1.30;;;7.00;99.90;;;;;;5320944;26;20008;-86
2024/04/10 06:45:59;;;;;;;5.30;1.37;;;7.00;99.90;;;;;;5321491;26;20458;-87
2024/04/10 06:48:26;;;;;;;6.20;2.40;;;7.00;99.90;;;;;;5326308;26;19997;-87
2024/04/10 06:50:56;;;;;;;6.70;1.83;;;7.00;99.90;;;;;;5324381;26;20005;-86
2024/04/10 06:53:23;;;;;;;3.30;1.30;;;7.00;99.90;;;;;;5323067;26;20071;-86
2024/04/10 06:55:59;;;;;;;1.77;1.37;;;7.10;99.90;;;;;;5324256;26;20113;-86
2024/04/10 06:58:25;;;;;;;4.00;1.40;;;7.10;99.90;;;;;;5323196;26;20793;-86
2024/04/10 07:01:02;;;;;;;3.83;1.33;;;7.10;99.90;;;;;;5323479;26;20045;-86
2024/04/10 07:03:28;;;;;;;3.17;1.30;;;7.20;99.90;;;;;;5323202;26;20056;-86
2024/04/10 07:06:11;;;;;;;2.73;1.30;;;7.20;99.90;;;;;;5317531;26;20087;-86
2024/04/10 07:08:47;;;;;;;3.13;1.47;;;7.20;99.90;;;;;;5318636;26;20005;-86
2024/04/10 07:11:20;;;;;;;3.37;1.43;;;7.20;99.90;;;;;;5320456;26;20769;-86
2024/04/10 07:13:50;;;;;;;4.00;1.70;;;7.20;99.90;;;;;;5322088;26;20023;-86
2024/04/10 07:16:17;;;;;;;3.50;1.70;;;7.20;99.90;;;;;;5321712;26;20005;-86
2024/04/10 07:18:44;;;;;;;4.77;1.83;;;7.20;99.90;;;;;;5320242;26;20008;-86
2024/04/10 07:21:11;;;;;;;4.10;1.63;;;7.20;99.90;;;;;;5321157;26;20412;-87
2024/04/10 07:23:39;;;;;;;5.47;2.20;;;7.30;99.90;;;;;;5319002;26;20009;-87
2024/04/10 07:26:20;;;;;;;3.97;1.40;;;7.30;99.90;;;;;;5321099;26;20000;-87
2024/04/10 07:28:55;;;;;;;5.27;1.73;;;7.30;99.90;;;;;;5320960;26;21747;-87
2024/04/10 07:31:25;;;;;;;3.60;1.60;;;7.40;99.90;;;;;;5319288;26;20005;-86
2024/04/10 07:33:51;;;;;;;4.53;2.17;;;7.30;99.90;;;;;;5321661;26;20048;-86
2024/04/10 07:36:18;;;;;;;4.60;1.80;;;7.40;99.90;;;;;;5320538;26;19996;-86
2024/04/10 07:38:45;;;;;;;5.90;1.70;;;7.40;99.90;;;;;;5322485;26;20011;-86
2024/04/10 07:41:11;;;;;;;4.13;1.90;;;7.50;99.90;;;;;;5318911;26;20019;-86
2024/04/10 07:43:37;;;;;;;4.93;1.63;;;7.50;99.90;;;;;;5320265;26;20005;-86
2024/04/10 07:46:10;;;;;;;7.87;1.80;;;7.50;99.90;;;;;;5321644;26;20103;-86
2024/04/10 07:48:37;;;;;;;4.83;2.07;;;7.60;99.90;;;;;;5320720;26;20001;-86
2024/04/10 07:51:07;;;;;;;3.70;1.83;;;7.70;99.90;;;;;;5321736;26;20005;-86
2024/04/10 07:53:35;;;;;;;3.10;2.03;;;7.80;99.90;;;;;;5319488;26;20030;-86
2024/04/10 07:56:01;;;;;;;4.00;1.80;;;7.90;99.90;;;;;;5321768;26;20028;-86
2024/04/10 07:58:28;;;;;;;4.33;2.00;;;8.00;99.90;;;;;;5319284;26;19998;-86
2024/04/10 08:00:56;;;;;;;5.13;1.87;;;8.10;99.90;;;;;;5322245;26;20016;-86
2024/04/10 08:03:23;;;;;;;3.33;1.57;;;8.20;99.90;;;;;;5325251;26;20011;-86
2024/04/10 08:05:50;;;;;;;4.00;1.90;;;8.40;99.90;;;;;;5324647;26;20024;-86
2024/04/10 08:08:16;;;;;;;5.17;1.77;;;8.50;99.90;;;;;;5325159;26;20013;-86
2024/04/10 08:10:41;;;;;;;6.17;1.87;;;8.60;99.90;;;;;;5326154;26;20079;-86
2024/04/10 08:13:07;;;;;;;3.23;1.83;;;8.80;99.90;;;;;;5327709;26;19993;-86
2024/04/10 08:15:33;;;;;;;7.67;1.93;;;8.80;99.90;;;;;;5322220;26;20045;-87
2024/04/10 08:17:58;;;;;;;4.87;1.77;;;8.90;99.90;;;;;;5323747;26;20368;-87
2024/04/10 08:20:24;;;;;;;6.53;2.53;;;9.00;99.90;;;;;;5327882;26;20001;-86
2024/04/10 08:22:49;;;;;;;5.87;2.10;;;9.00;99.90;;;;;;5324462;26;20001;-87
2024/04/10 08:25:15;;;;;;;4.43;2.47;;;9.00;99.90;;;;;;5327013;26;20020;-86
2024/04/10 08:27:41;;;;;;;7.17;2.53;;;9.00;99.90;;;;;;5324011;26;20000;-87
2024/04/10 08:30:07;;;;;;;5.03;1.73;;;9.00;99.90;;;;;;5324964;26;20351;-87
2024/04/10 08:32:34;;;;;;;4.83;1.90;;;8.90;99.90;;;;;;5325953;26;20009;-86
2024/04/10 08:34:59;;;;;;;5.70;2.33;;;8.90;99.90;;;;;;5326270;26;20084;-85
2024/04/10 08:37:25;;;;;;;4.00;1.77;;;8.90;99.90;;;;;;5326088;26;20016;-86
2024/04/10 08:39:50;;;;;;;5.03;2.20;;;8.90;99.90;;;;;;5328221;26;20037;-87
2024/04/10 08:42:19;;;;;;;3.63;2.10;;;8.90;99.90;;;;;;5328234;26;19997;-86
2024/04/10 08:44:44;;;;;;;9.60;2.77;;;9.00;99.90;;;;;;5327101;26;20073;-86
2024/04/10 08:47:12;;;;;;;5.20;1.87;;;9.10;99.90;;;;;;5329576;26;20005;-86
2024/04/10 08:49:39;;;;;;;5.90;2.20;;;9.20;99.90;;;;;;5326658;26;21479;-86
2024/04/10 08:52:07;;;;;;;4.17;2.00;;;9.30;99.90;;;;;;5329299;26;20001;-86
2024/04/10 08:54:35;;;;;;;6.07;2.10;;;9.40;99.90;;;;;;5329339;26;20067;-86
2024/04/10 08:57:01;;;;;;;5.87;1.73;;;9.60;99.90;;;;;;5328219;26;20019;-86
2024/04/10 08:59:28;;;;;;;6.33;1.80;;;9.60;99.90;;;;;;5329161;26;20052;-87
2024/04/10 09:01:54;;;;;;;3.33;1.70;;;9.70;99.90;;;;;;5328292;26;21781;-86
2024/04/10 09:04:23;;;;;;;4.72;2.00;;;9.80;99.90;;;;;;5329825;26;20016;-87
2024/04/10 09:06:51;;;;;;;5.80;2.27;;;9.90;99.90;;;;;;5331736;26;20003;-87
2024/04/10 09:09:23;;;;;;;6.10;2.50;;;10.00;99.90;;;;;;5326396;26;20037;-86
2024/04/10 09:11:51;;;;;;;7.87;2.43;;;10.10;99.90;;;;;;5326747;26;20013;-86
2024/04/10 09:14:17;;;;;;;4.10;2.03;;;10.30;99.90;;;;;;5330104;26;20025;-86
2024/04/10 09:16:43;;;;;;;10.23;2.30;;;10.30;99.90;;;;;;5327304;26;20020;-87
2024/04/10 09:19:16;;;;;;;6.60;1.97;;;10.40;99.90;;;;;;5324972;26;20037;-85
2024/04/10 09:21:55;;;;;;;7.50;1.87;;;10.50;99.90;;;;;;5329398;26;20004;-86
2024/04/10 09:24:25;;;;;;;5.20;2.20;;;10.50;99.90;;;;;;5330812;26;20013;-85
2024/04/10 09:26:51;;;;;;;4.97;1.67;;;10.60;99.90;;;;;;5327015;26;20009;-86
2024/04/10 09:29:19;;;;;;;5.20;1.90;;;10.60;99.90;;;;;;5331692;26;20007;-86
2024/04/10 09:31:48;;;;;;;6.88;2.03;;;10.70;99.90;;;;;;5339125;26;20196;-88
2024/04/10 09:34:19;;;;;;;6.55;1.73;;;10.70;99.90;;;;;;5330105;26;20009;-85
2024/04/10 09:36:46;;;;;;;5.07;2.10;;;10.80;99.90;;;;;;5328328;26;19997;-85
2024/04/10 09:39:12;;;;;;;6.95;2.00;;;10.80;99.90;;;;;;5327629;26;20009;-85
2024/04/10 09:41:44;;;;;;;6.85;2.05;;;10.80;99.90;;;;;;5329182;26;20504;-86
2024/04/10 09:44:10;;;;;;;6.50;1.75;;;11.00;99.90;;;;;;5327354;26;20009;-85
2024/04/10 09:46:37;;;;;;;6.70;1.60;;;11.10;99.90;;;;;;5326638;26;20058;-87
2024/04/10 09:49:10;;;;;;;5.50;1.70;;;11.20;99.90;;;;;;5327671;26;20041;-85
2024/04/10 09:51:39;;;;;;;4.72;1.70;;;11.20;99.90;;;;;;5329263;26;20013;-87
2024/04/10 09:54:11;;;;;;;5.07;1.60;;;11.40;99.90;;;;;;5323814;26;19998;-86
2024/04/10 09:56:38;;;;;;;6.35;2.30;;;11.40;99.90;;;;;;5327708;26;20019;-86
2024/04/10 09:59:07;;;;;;;6.38;1.80;;;11.50;99.90;;;;;;5324168;26;20012;-85
2024/04/10 10:01:32;;;;;;;3.80;1.70;;;11.70;99.90;;;;;;5328236;26;20000;-86
2024/04/10 10:03:58;;;;;;;7.03;1.85;;;11.80;99.90;;;;;;5329886;26;20064;-85
2024/04/10 10:06:31;;;;;;;7.03;1.50;;;11.90;99.90;;;;;;5325555;26;20410;-86
2024/04/10 10:08:58;;;;;;;4.53;1.70;;;12.00;99.90;;;;;;5328875;26;20001;-87
2024/04/10 10:11:24;;;;;;;4.18;1.60;;;12.00;99.90;;;;;;5330763;26;20009;-86
2024/04/10 10:14:03;;;;;;;5.80;1.85;;;12.10;99.90;;;;;;5330365;26;20004;-86
2024/04/10 10:16:31;;;;;;;5.20;1.42;;;12.30;99.90;;;;;;5326910;26;20009;-86
2024/04/10 10:19:01;;;;;;;4.18;1.75;;;12.50;99.90;;;;;;5333903;26;20009;-87
2024/04/10 10:21:28;;;;;;;4.47;2.08;;;12.70;99.90;;;;;;5327290;26;20005;-85
2024/04/10 10:24:05;;;;;;;4.75;1.50;;;12.90;99.90;;;;;;5327820;26;19997;-86
2024/04/10 10:26:31;;;;;;;3.90;1.52;;;12.80;99.90;;;;;;5323160;26;20009;-86
2024/04/10 10:29:07;;;;;;;5.40;1.67;;;12.70;99.90;;;;;;5328864;26;20084;-86
2024/04/10 10:31:34;;;;;;;8.23;1.60;;;12.60;99.90;;;;;;5327385;26;20005;-86
2024/04/10 10:34:01;;;;;;;4.82;1.60;;;12.50;99.90;;;;;;5325175;26;20012;-89
2024/04/10 10:36:31;;;;;;;3.90;1.50;;;12.60;99.90;;;;;;5323850;26;20546;-86
2024/04/10 10:39:05;;;;;;;6.10;1.58;;;12.60;99.90;;;;;;5320944;26;20015;-87
2024/04/10 10:41:30;;;;;;;5.15;1.40;;;12.60;99.90;;;;;;5322016;26;20116;-86
2024/04/10 10:43:59;;;;;;;7.85;2.05;;;12.60;99.90;;;;;;5321300;26;20005;-87
2024/04/10 10:47:50;;;;;;;3.67;1.55;;;12.60;99.90;;;;;;5456133;25;20476;-88
2024/04/10 10:50:17;;;;;;;7.35;1.70;;;12.30;99.90;;;;;;5420118;26;20363;-87
2024/04/10 10:52:42;;;;;;;3.97;1.38;;;12.20;99.90;;;;;;5424205;26;20117;-87
2024/04/10 10:55:15;;;;;;;5.00;1.58;;;12.20;99.90;;;;;;5423293;26;20036;-86
2024/04/10 10:57:40;;;;;;;5.25;1.50;;;12.30;99.90;;;;;;5421809;26;20007;-87
2024/04/10 11:00:19;;;;;;;4.57;1.45;;;12.50;99.90;;;;;;5422148;26;20011;-88
2024/04/10 11:02:44;;;;;;;3.88;1.40;;;12.60;99.90;;;;;;5420198;26;20532;-88
2024/04/10 11:05:14;;;;;;;4.40;1.55;;;12.70;99.90;;;;;;5422292;26;20125;-87
2024/04/10 11:07:41;;;;;;;5.03;1.90;;;12.90;99.90;;;;;;5420688;26;19999;-89
2024/04/10 11:10:11;;;;;;;4.43;1.40;;;12.80;99.90;;;;;;5422199;26;20007;-87
2024/04/10 11:12:37;;;;;;;5.05;1.80;;;12.60;99.90;;;;;;5421961;26;20087;-86
2024/04/10 11:15:12;;;;;;;6.70;2.03;;;12.40;99.90;;;;;;5419945;26;21289;-87
2024/04/10 11:17:38;;;;;;;6.20;1.75;;;12.40;99.90;;;;;;5419317;26;20017;-87
2024/04/10 11:20:13;;;;;;;6.22;1.52;;;12.40;99.90;;;;;;5421689;26;20011;-87
2024/04/10 11:22:38;;;;;;;3.15;1.30;;;12.30;99.90;;;;;;5422807;26;20063;-87
2024/04/10 11:25:05;;;;;;;4.10;1.20;;;12.20;99.90;;;;;;5423022;26;20058;-87
2024/04/10 11:27:31;;;;;;;4.32;1.30;;;12.30;99.90;;;;;;5420989;26;20025;-87
2024/04/10 11:29:56;;;;;;;3.85;1.60;;;12.30;99.90;;;;;;5421704;26;19999;-87
2024/04/10 11:32:22;;;;;;;4.57;1.35;;;12.30;99.90;;;;;;5422073;26;20018;-88
2024/04/10 11:34:47;;;;;;;4.78;1.60;;;12.70;99.90;;;;;;5422680;26;20093;-87
2024/04/10 11:37:13;;;;;;;4.65;1.45;;;13.10;99.90;;;;;;5421613;26;20003;-88
2024/04/10 11:39:39;;;;;;;3.72;1.70;;;13.40;99.90;;;;;;5422512;26;20117;-88
2024/04/10 11:42:05;;;;;;;8.20;2.75;;;13.90;99.90;;;;;;5417094;26;20015;-88
2024/04/10 11:44:30;;;;;;;3.08;1.20;;;14.20;99.90;;;;;;5421531;26;19996;-92
2024/04/10 11:46:56;;;;;;;2.67;1.40;;;14.70;99.90;;;;;;5426162;26;20003;-82
2024/04/10 11:49:21;;;;;;;3.78;1.40;;;15.10;99.90;;;;;;5430374;26;20057;-82
2024/04/10 11:51:47;;;;;;;5.82;1.63;;;15.00;99.90;;;;;;5428636;26;20022;-82
2024/04/10 11:54:13;;;;;;;5.80;2.13;;;15.00;99.90;;;;;;5429281;26;20027;-82
2024/04/10 11:56:39;;;;;;;2.70;1.08;;;15.20;99.90;;;;;;5428145;26;20087;-81
2024/04/10 11:59:04;;;;;;;6.45;2.40;;;15.00;99.90;;;;;;5410799;26;20045;-81
2024/04/10 12:01:30;;;;;;;4.90;1.98;;;14.50;99.90;;;;;;5412668;26;20018;-82
2024/04/10 12:03:55;;;;;;;3.95;1.30;;;14.10;99.90;;;;;;5407466;26;20004;-81
2024/04/10 12:06:21;;;;;;;7.40;2.30;;;14.10;99.90;;;;;;5406798;26;20022;-83
2024/04/10 12:08:46;;;;;;;4.05;2.58;;;14.00;99.90;;;;;;5405484;26;20015;-83
2024/04/10 12:11:12;;;;;;;5.82;2.05;;;13.80;99.90;;;;;;5404333;26;20003;-83
2024/04/10 12:13:42;;;;;;;4.93;1.83;;;13.60;99.90;;;;;;5407006;26;20013;-82
2024/04/10 12:16:08;;;;;;;3.95;1.77;;;13.50;99.90;;;;;;5405504;26;20007;-82
2024/04/10 12:18:33;;;;;;;7.40;2.08;;;13.30;99.90;;;;;;5405782;26;20003;-80
2024/04/10 12:20:59;;;;;;;4.30;1.52;;;13.60;99.90;;;;;;5405793;26;20011;-81
2024/04/10 12:23:25;;;;;;;5.53;1.85;;;13.80;99.90;;;;;;5409460;26;20007;-81
2024/04/10 12:25:51;;;;;;;9.15;1.92;;;14.10;99.90;;;;;;5408722;26;20019;-81
2024/04/10 12:28:17;;;;;;;5.22;1.50;;;14.80;99.90;;;;;;5408150;26;20004;-80
2024/04/10 12:30:43;;;;;;;4.32;1.45;;;15.20;99.90;;;;;;5404406;26;20011;-81
2024/04/10 12:33:08;;;;;;;5.93;1.83;;;15.40;99.90;;;;;;5404599;26;20110;-82
2024/04/10 12:38:29;;;;;;;5.93;1.98;;;14.90;99.90;;;;;;5342975;26;20004;-82
2024/04/10 12:40:58;;;;;;;4.07;1.73;;;14.40;99.90;;;;;;5402695;26;20365;-82
2024/04/10 12:43:24;;;;;;;2.90;1.25;;;14.30;99.90;;;;;;5406423;26;20022;-82
2024/04/10 12:45:50;;;;;;;3.97;1.48;;;14.40;99.90;;;;;;5406846;26;20020;-82
2024/04/10 12:48:16;;;;;;;6.18;2.30;;;14.30;99.90;;;;;;5409290;26;20002;-82
2024/04/10 12:50:41;;;;;;;5.22;1.48;;;14.30;99.90;;;;;;5407583;26;20294;-82
2024/04/10 12:53:07;;;;;;;4.43;1.60;;;14.30;99.90;;;;;;5406984;26;20049;-80
2024/04/10 12:55:32;;;;;;;4.05;1.30;;;14.30;99.90;;;;;;5408750;26;20016;-82